sensor_id;sensor_type;location;lat;lon;timestamp;P1;durP1;ratioP1;P2;durP2;ratioP2
80398;SDS011;69722;48.642;9.142;2023-05-10T00:01:19;1.87;;;1.33;;
80398;SDS011;69722;48.642;9.142;2023-05-10T00:03:45;1.37;;;1.20;;
80398;SDS011;69722;48.642;9.142;2023-05-10T00:06:10;1.58;;;1.20;;
80398;SDS011;69722;48.642;9.142;2023-05-10T00:08:36;1.70;;;1.33;;
80398;SDS011;69722;48.642;9.142;2023-05-10T00:11:01;1.63;;;1.20;;
80398;SDS011;69722;48.642;9.142;2023-05-10T00:13:29;1.60;;;1.10;;
80398;SDS011;69722;48.642;9.142;2023-05-10T00:15:54;2.63;;;1.40;;
80398;SDS011;69722;48.642;9.142;2023-05-10T00:18:20;3.93;;;1.90;;
80398;SDS011;69722;48.642;9.142;2023-05-10T00:20:45;2.33;;;1.20;;
80398;SDS011;69722;48.642;9.142;2023-05-10T00:23:11;1.45;;;1.00;;
80398;SDS011;69722;48.642;9.142;2023-05-10T00:25:36;2.15;;;1.20;;
80398;SDS011;69722;48.642;9.142;2023-05-10T00:28:02;1.77;;;1.43;;
80398;SDS011;69722;48.642;9.142;2023-05-10T00:30:27;1.27;;;1.08;;
80398;SDS011;69722;48.642;9.142;2023-05-10T00:32:52;2.57;;;1.13;;
80398;SDS011;69722;48.642;9.142;2023-05-10T00:35:18;2.23;;;1.40;;
80398;SDS011;69722;48.642;9.142;2023-05-10T00:37:43;1.33;;;1.10;;
80398;SDS011;69722;48.642;9.142;2023-05-10T00:40:09;1.60;;;1.10;;
80398;SDS011;69722;48.642;9.142;2023-05-10T00:42:34;1.95;;;1.25;;
80398;SDS011;69722;48.642;9.142;2023-05-10T00:44:59;1.73;;;1.30;;
80398;SDS011;69722;48.642;9.142;2023-05-10T00:47:25;1.73;;;1.35;;
80398;SDS011;69722;48.642;9.142;2023-05-10T00:49:50;1.57;;;1.23;;
80398;SDS011;69722;48.642;9.142;2023-05-10T00:52:16;1.55;;;1.00;;
80398;SDS011;69722;48.642;9.142;2023-05-10T00:54:42;2.20;;;1.30;;
80398;SDS011;69722;48.642;9.142;2023-05-10T00:57:07;1.57;;;1.13;;
80398;SDS011;69722;48.642;9.142;2023-05-10T00:59:32;1.53;;;1.20;;
80398;SDS011;69722;48.642;9.142;2023-05-10T01:01:58;1.88;;;1.27;;
80398;SDS011;69722;48.642;9.142;2023-05-10T01:04:23;1.67;;;1.23;;
80398;SDS011;69722;48.642;9.142;2023-05-10T01:06:51;1.27;;;0.95;;
80398;SDS011;69722;48.642;9.142;2023-05-10T01:09:16;1.90;;;1.20;;
80398;SDS011;69722;48.642;9.142;2023-05-10T01:11:43;2.58;;;1.10;;
80398;SDS011;69722;48.642;9.142;2023-05-10T01:14:08;1.75;;;1.00;;
80398;SDS011;69722;48.642;9.142;2023-05-10T01:16:36;1.30;;;1.20;;
80398;SDS011;69722;48.642;9.142;2023-05-10T01:19:03;1.27;;;0.90;;
80398;SDS011;69722;48.642;9.142;2023-05-10T01:24:46;2.28;;;1.13;;
80398;SDS011;69722;48.642;9.142;2023-05-10T01:27:20;1.25;;;0.95;;
80398;SDS011;69722;48.642;9.142;2023-05-10T01:35:37;1.38;;;1.23;;
80398;SDS011;69722;48.642;9.142;2023-05-10T01:43:28;1.50;;;1.20;;
80398;SDS011;69722;48.642;9.142;2023-05-10T01:48:30;1.30;;;1.10;;
80398;SDS011;69722;48.642;9.142;2023-05-10T01:50:56;2.15;;;1.27;;
80398;SDS011;69722;48.642;9.142;2023-05-10T01:53:22;1.45;;;1.10;;
80398;SDS011;69722;48.642;9.142;2023-05-10T01:55:49;1.20;;;1.10;;
80398;SDS011;69722;48.642;9.142;2023-05-10T01:58:25;1.75;;;1.17;;
80398;SDS011;69722;48.642;9.142;2023-05-10T02:00:52;1.67;;;1.10;;
80398;SDS011;69722;48.642;9.142;2023-05-10T02:03:20;1.13;;;0.98;;
80398;SDS011;69722;48.642;9.142;2023-05-10T02:05:48;1.27;;;1.00;;
80398;SDS011;69722;48.642;9.142;2023-05-10T02:08:13;2.40;;;1.88;;
80398;SDS011;69722;48.642;9.142;2023-05-10T02:10:40;0.98;;;0.82;;
80398;SDS011;69722;48.642;9.142;2023-05-10T02:13:07;1.95;;;1.17;;
80398;SDS011;69722;48.642;9.142;2023-05-10T02:15:33;1.02;;;0.98;;
80398;SDS011;69722;48.642;9.142;2023-05-10T02:17:59;0.85;;;0.82;;
80398;SDS011;69722;48.642;9.142;2023-05-10T02:20:25;0.73;;;0.73;;
80398;SDS011;69722;48.642;9.142;2023-05-10T02:22:52;1.63;;;1.10;;
80398;SDS011;69722;48.642;9.142;2023-05-10T02:25:19;1.90;;;1.30;;
80398;SDS011;69722;48.642;9.142;2023-05-10T02:27:46;1.00;;;0.70;;
80398;SDS011;69722;48.642;9.142;2023-05-10T02:30:12;1.20;;;1.10;;
80398;SDS011;69722;48.642;9.142;2023-05-10T02:32:38;1.10;;;1.00;;
80398;SDS011;69722;48.642;9.142;2023-05-10T02:35:04;1.63;;;1.23;;
80398;SDS011;69722;48.642;9.142;2023-05-10T02:37:30;1.05;;;0.85;;
80398;SDS011;69722;48.642;9.142;2023-05-10T02:39:55;1.80;;;1.00;;
80398;SDS011;69722;48.642;9.142;2023-05-10T02:42:27;1.02;;;1.00;;
80398;SDS011;69722;48.642;9.142;2023-05-10T02:44:56;1.38;;;0.93;;
80398;SDS011;69722;48.642;9.142;2023-05-10T02:47:25;1.27;;;0.82;;
80398;SDS011;69722;48.642;9.142;2023-05-10T02:49:51;2.38;;;1.17;;
80398;SDS011;69722;48.642;9.142;2023-05-10T02:52:19;0.80;;;0.70;;
80398;SDS011;69722;48.642;9.142;2023-05-10T02:54:49;1.02;;;0.75;;
80398;SDS011;69722;48.642;9.142;2023-05-10T02:57:16;1.05;;;0.82;;
80398;SDS011;69722;48.642;9.142;2023-05-10T02:59:44;2.10;;;0.90;;
80398;SDS011;69722;48.642;9.142;2023-05-10T03:02:10;1.10;;;0.98;;
80398;SDS011;69722;48.642;9.142;2023-05-10T03:04:37;0.88;;;0.82;;
80398;SDS011;69722;48.642;9.142;2023-05-10T03:07:02;0.80;;;0.80;;
80398;SDS011;69722;48.642;9.142;2023-05-10T03:09:28;1.45;;;0.90;;
80398;SDS011;69722;48.642;9.142;2023-05-10T03:12:01;1.05;;;0.90;;
80398;SDS011;69722;48.642;9.142;2023-05-10T03:14:34;1.23;;;1.00;;
80398;SDS011;69722;48.642;9.142;2023-05-10T03:20:06;0.52;;;0.47;;
80398;SDS011;69722;48.642;9.142;2023-05-10T03:22:37;1.77;;;0.90;;
80398;SDS011;69722;48.642;9.142;2023-05-10T03:25:04;1.15;;;0.90;;
80398;SDS011;69722;48.642;9.142;2023-05-10T03:27:31;2.55;;;0.95;;
80398;SDS011;69722;48.642;9.142;2023-05-10T03:29:57;7.20;;;1.30;;
80398;SDS011;69722;48.642;9.142;2023-05-10T03:32:22;3.43;;;0.93;;
80398;SDS011;69722;48.642;9.142;2023-05-10T03:34:48;3.72;;;0.88;;
80398;SDS011;69722;48.642;9.142;2023-05-10T03:37:13;1.97;;;1.13;;
80398;SDS011;69722;48.642;9.142;2023-05-10T03:39:39;2.47;;;1.00;;
80398;SDS011;69722;48.642;9.142;2023-05-10T03:42:04;1.50;;;0.97;;
80398;SDS011;69722;48.642;9.142;2023-05-10T03:44:29;4.38;;;1.52;;
80398;SDS011;69722;48.642;9.142;2023-05-10T03:46:55;1.50;;;0.80;;
80398;SDS011;69722;48.642;9.142;2023-05-10T03:49:22;6.07;;;1.38;;
80398;SDS011;69722;48.642;9.142;2023-05-10T03:51:47;1.50;;;0.80;;
80398;SDS011;69722;48.642;9.142;2023-05-10T03:54:13;1.17;;;0.77;;
80398;SDS011;69722;48.642;9.142;2023-05-10T03:56:38;1.37;;;0.80;;
80398;SDS011;69722;48.642;9.142;2023-05-10T03:59:04;0.77;;;0.77;;
80398;SDS011;69722;48.642;9.142;2023-05-10T04:01:33;1.45;;;0.93;;
80398;SDS011;69722;48.642;9.142;2023-05-10T04:03:58;2.55;;;0.85;;
80398;SDS011;69722;48.642;9.142;2023-05-10T04:06:24;2.90;;;0.87;;
80398;SDS011;69722;48.642;9.142;2023-05-10T04:08:49;1.40;;;0.90;;
80398;SDS011;69722;48.642;9.142;2023-05-10T04:11:14;4.57;;;0.87;;
80398;SDS011;69722;48.642;9.142;2023-05-10T04:13:39;2.80;;;1.13;;
80398;SDS011;69722;48.642;9.142;2023-05-10T04:16:05;5.63;;;1.07;;
80398;SDS011;69722;48.642;9.142;2023-05-10T04:18:30;1.63;;;1.08;;
80398;SDS011;69722;48.642;9.142;2023-05-10T04:20:56;2.42;;;1.13;;
80398;SDS011;69722;48.642;9.142;2023-05-10T04:23:22;2.22;;;1.23;;
80398;SDS011;69722;48.642;9.142;2023-05-10T04:25:47;6.50;;;1.08;;
80398;SDS011;69722;48.642;9.142;2023-05-10T04:28:12;3.20;;;1.13;;
80398;SDS011;69722;48.642;9.142;2023-05-10T04:30:38;6.33;;;1.10;;
80398;SDS011;69722;48.642;9.142;2023-05-10T04:33:03;4.22;;;1.10;;
80398;SDS011;69722;48.642;9.142;2023-05-10T04:35:29;1.00;;;0.90;;
80398;SDS011;69722;48.642;9.142;2023-05-10T04:37:54;5.60;;;1.07;;
80398;SDS011;69722;48.642;9.142;2023-05-10T04:40:20;2.05;;;1.00;;
80398;SDS011;69722;48.642;9.142;2023-05-10T04:42:45;3.03;;;1.00;;
80398;SDS011;69722;48.642;9.142;2023-05-10T04:45:13;1.73;;;1.10;;
80398;SDS011;69722;48.642;9.142;2023-05-10T04:47:42;1.50;;;0.98;;
80398;SDS011;69722;48.642;9.142;2023-05-10T04:50:07;3.93;;;1.20;;
80398;SDS011;69722;48.642;9.142;2023-05-10T04:52:33;2.58;;;1.02;;
80398;SDS011;69722;48.642;9.142;2023-05-10T04:55:01;2.38;;;0.95;;
80398;SDS011;69722;48.642;9.142;2023-05-10T04:57:26;2.03;;;0.88;;
80398;SDS011;69722;48.642;9.142;2023-05-10T04:59:51;1.07;;;0.83;;
80398;SDS011;69722;48.642;9.142;2023-05-10T05:02:17;2.22;;;0.88;;
80398;SDS011;69722;48.642;9.142;2023-05-10T05:04:42;1.33;;;0.83;;
80398;SDS011;69722;48.642;9.142;2023-05-10T05:07:08;2.73;;;1.37;;
80398;SDS011;69722;48.642;9.142;2023-05-10T05:09:33;2.10;;;1.05;;
80398;SDS011;69722;48.642;9.142;2023-05-10T05:11:58;1.80;;;0.63;;
80398;SDS011;69722;48.642;9.142;2023-05-10T05:14:24;2.50;;;0.98;;
80398;SDS011;69722;48.642;9.142;2023-05-10T05:16:52;2.40;;;1.02;;
80398;SDS011;69722;48.642;9.142;2023-05-10T05:19:17;1.58;;;1.08;;
80398;SDS011;69722;48.642;9.142;2023-05-10T05:21:42;4.37;;;1.10;;
80398;SDS011;69722;48.642;9.142;2023-05-10T05:24:08;1.00;;;0.90;;
80398;SDS011;69722;48.642;9.142;2023-05-10T05:26:33;2.00;;;0.90;;
80398;SDS011;69722;48.642;9.142;2023-05-10T05:28:59;2.43;;;1.20;;
80398;SDS011;69722;48.642;9.142;2023-05-10T05:31:24;2.10;;;0.97;;
80398;SDS011;69722;48.642;9.142;2023-05-10T05:33:49;7.18;;;1.17;;
80398;SDS011;69722;48.642;9.142;2023-05-10T05:36:15;3.23;;;0.73;;
80398;SDS011;69722;48.642;9.142;2023-05-10T05:38:40;1.37;;;0.93;;
80398;SDS011;69722;48.642;9.142;2023-05-10T05:41:05;3.00;;;1.03;;
80398;SDS011;69722;48.642;9.142;2023-05-10T05:43:31;1.63;;;0.83;;
80398;SDS011;69722;48.642;9.142;2023-05-10T05:45:56;1.35;;;0.80;;
80398;SDS011;69722;48.642;9.142;2023-05-10T05:48:22;1.67;;;1.00;;
80398;SDS011;69722;48.642;9.142;2023-05-10T05:50:48;0.65;;;0.65;;
80398;SDS011;69722;48.642;9.142;2023-05-10T05:53:13;0.82;;;0.77;;
80398;SDS011;69722;48.642;9.142;2023-05-10T05:55:39;1.52;;;0.88;;
80398;SDS011;69722;48.642;9.142;2023-05-10T05:58:04;1.37;;;1.00;;
80398;SDS011;69722;48.642;9.142;2023-05-10T06:00:29;1.87;;;0.87;;
80398;SDS011;69722;48.642;9.142;2023-05-10T06:02:55;2.75;;;0.90;;
80398;SDS011;69722;48.642;9.142;2023-05-10T06:05:20;3.70;;;0.97;;
80398;SDS011;69722;48.642;9.142;2023-05-10T06:07:46;0.97;;;0.80;;
80398;SDS011;69722;48.642;9.142;2023-05-10T06:10:11;1.17;;;0.70;;
80398;SDS011;69722;48.642;9.142;2023-05-10T06:12:36;1.57;;;1.00;;
80398;SDS011;69722;48.642;9.142;2023-05-10T06:15:02;1.33;;;0.80;;
80398;SDS011;69722;48.642;9.142;2023-05-10T06:17:28;0.85;;;0.70;;
80398;SDS011;69722;48.642;9.142;2023-05-10T06:19:53;1.98;;;0.70;;
80398;SDS011;69722;48.642;9.142;2023-05-10T06:22:19;1.05;;;0.90;;
80398;SDS011;69722;48.642;9.142;2023-05-10T06:24:44;1.40;;;0.80;;
80398;SDS011;69722;48.642;9.142;2023-05-10T06:27:09;4.85;;;1.10;;
80398;SDS011;69722;48.642;9.142;2023-05-10T06:29:38;1.40;;;0.93;;
80398;SDS011;69722;48.642;9.142;2023-05-10T06:32:04;1.05;;;0.80;;
80398;SDS011;69722;48.642;9.142;2023-05-10T06:34:29;0.63;;;0.57;;
80398;SDS011;69722;48.642;9.142;2023-05-10T06:36:54;1.00;;;0.77;;
80398;SDS011;69722;48.642;9.142;2023-05-10T06:39:20;2.77;;;1.00;;
80398;SDS011;69722;48.642;9.142;2023-05-10T06:41:45;1.97;;;0.93;;
80398;SDS011;69722;48.642;9.142;2023-05-10T06:44:10;1.73;;;0.73;;
80398;SDS011;69722;48.642;9.142;2023-05-10T06:46:36;1.52;;;1.00;;
80398;SDS011;69722;48.642;9.142;2023-05-10T06:49:01;1.10;;;0.80;;
80398;SDS011;69722;48.642;9.142;2023-05-10T06:51:26;1.43;;;1.10;;
80398;SDS011;69722;48.642;9.142;2023-05-10T06:53:52;1.23;;;0.88;;
80398;SDS011;69722;48.642;9.142;2023-05-10T06:56:17;1.65;;;0.77;;
80398;SDS011;69722;48.642;9.142;2023-05-10T06:58:43;1.30;;;0.83;;
80398;SDS011;69722;48.642;9.142;2023-05-10T07:01:08;2.90;;;0.97;;
80398;SDS011;69722;48.642;9.142;2023-05-10T07:03:33;1.07;;;0.83;;
80398;SDS011;69722;48.642;9.142;2023-05-10T07:06:02;0.90;;;0.80;;
80398;SDS011;69722;48.642;9.142;2023-05-10T07:08:29;1.05;;;0.80;;
80398;SDS011;69722;48.642;9.142;2023-05-10T07:11:01;1.15;;;0.82;;
80398;SDS011;69722;48.642;9.142;2023-05-10T07:13:31;0.85;;;0.73;;
80398;SDS011;69722;48.642;9.142;2023-05-10T07:15:57;0.77;;;0.65;;
80398;SDS011;69722;48.642;9.142;2023-05-10T07:18:23;1.17;;;1.00;;
80398;SDS011;69722;48.642;9.142;2023-05-10T07:20:49;0.98;;;0.88;;
80398;SDS011;69722;48.642;9.142;2023-05-10T07:23:14;0.73;;;0.60;;
80398;SDS011;69722;48.642;9.142;2023-05-10T07:25:40;1.00;;;0.70;;
80398;SDS011;69722;48.642;9.142;2023-05-10T07:28:05;0.90;;;0.80;;
80398;SDS011;69722;48.642;9.142;2023-05-10T07:30:30;1.10;;;0.90;;
80398;SDS011;69722;48.642;9.142;2023-05-10T07:32:56;1.13;;;0.77;;
80398;SDS011;69722;48.642;9.142;2023-05-10T07:35:21;1.02;;;1.00;;
80398;SDS011;69722;48.642;9.142;2023-05-10T07:37:46;1.90;;;0.83;;
80398;SDS011;69722;48.642;9.142;2023-05-10T07:40:12;0.80;;;0.80;;
80398;SDS011;69722;48.642;9.142;2023-05-10T07:42:37;1.27;;;0.80;;
80398;SDS011;69722;48.642;9.142;2023-05-10T07:45:03;1.00;;;0.90;;
80398;SDS011;69722;48.642;9.142;2023-05-10T07:47:28;0.70;;;0.60;;
80398;SDS011;69722;48.642;9.142;2023-05-10T07:49:54;1.07;;;0.83;;
80398;SDS011;69722;48.642;9.142;2023-05-10T07:52:19;1.93;;;0.87;;
80398;SDS011;69722;48.642;9.142;2023-05-10T07:54:44;0.80;;;0.70;;
80398;SDS011;69722;48.642;9.142;2023-05-10T07:57:10;1.10;;;0.83;;
80398;SDS011;69722;48.642;9.142;2023-05-10T07:59:35;0.70;;;0.68;;
80398;SDS011;69722;48.642;9.142;2023-05-10T08:02:01;1.40;;;0.80;;
80398;SDS011;69722;48.642;9.142;2023-05-10T08:04:26;0.90;;;0.87;;
80398;SDS011;69722;48.642;9.142;2023-05-10T08:06:52;0.77;;;0.70;;
80398;SDS011;69722;48.642;9.142;2023-05-10T08:09:17;1.10;;;0.70;;
80398;SDS011;69722;48.642;9.142;2023-05-10T08:11:42;0.82;;;0.77;;
80398;SDS011;69722;48.642;9.142;2023-05-10T08:14:08;1.65;;;0.65;;
80398;SDS011;69722;48.642;9.142;2023-05-10T08:16:33;1.03;;;0.60;;
80398;SDS011;69722;48.642;9.142;2023-05-10T08:18:59;2.33;;;0.85;;
80398;SDS011;69722;48.642;9.142;2023-05-10T08:21:24;0.75;;;0.70;;
80398;SDS011;69722;48.642;9.142;2023-05-10T08:23:50;1.20;;;0.70;;
80398;SDS011;69722;48.642;9.142;2023-05-10T08:26:16;1.23;;;0.80;;
80398;SDS011;69722;48.642;9.142;2023-05-10T08:28:41;2.28;;;0.88;;
80398;SDS011;69722;48.642;9.142;2023-05-10T08:31:07;0.90;;;0.80;;
80398;SDS011;69722;48.642;9.142;2023-05-10T08:33:32;1.00;;;0.90;;
80398;SDS011;69722;48.642;9.142;2023-05-10T08:35:57;0.80;;;0.80;;
80398;SDS011;69722;48.642;9.142;2023-05-10T08:38:23;1.43;;;0.70;;
80398;SDS011;69722;48.642;9.142;2023-05-10T08:40:48;1.77;;;1.00;;
80398;SDS011;69722;48.642;9.142;2023-05-10T08:43:15;1.38;;;0.85;;
80398;SDS011;69722;48.642;9.142;2023-05-10T08:45:42;1.33;;;0.85;;
80398;SDS011;69722;48.642;9.142;2023-05-10T08:48:10;1.02;;;0.90;;
80398;SDS011;69722;48.642;9.142;2023-05-10T08:50:36;0.88;;;0.68;;
80398;SDS011;69722;48.642;9.142;2023-05-10T08:53:06;1.13;;;0.90;;
80398;SDS011;69722;48.642;9.142;2023-05-10T08:55:34;0.70;;;0.68;;
80398;SDS011;69722;48.642;9.142;2023-05-10T08:58:02;0.73;;;0.60;;
80398;SDS011;69722;48.642;9.142;2023-05-10T09:00:28;1.08;;;0.75;;
80398;SDS011;69722;48.642;9.142;2023-05-10T09:02:53;2.37;;;1.00;;
80398;SDS011;69722;48.642;9.142;2023-05-10T09:05:19;0.95;;;0.73;;
80398;SDS011;69722;48.642;9.142;2023-05-10T09:07:44;1.08;;;0.80;;
80398;SDS011;69722;48.642;9.142;2023-05-10T09:10:10;0.70;;;0.70;;
80398;SDS011;69722;48.642;9.142;2023-05-10T09:12:36;1.35;;;0.50;;
80398;SDS011;69722;48.642;9.142;2023-05-10T09:15:02;0.73;;;0.70;;
80398;SDS011;69722;48.642;9.142;2023-05-10T09:17:29;1.33;;;0.80;;
80398;SDS011;69722;48.642;9.142;2023-05-10T09:19:58;0.60;;;0.50;;
80398;SDS011;69722;48.642;9.142;2023-05-10T09:22:24;0.68;;;0.63;;
80398;SDS011;69722;48.642;9.142;2023-05-10T09:25:03;1.23;;;0.82;;
80398;SDS011;69722;48.642;9.142;2023-05-10T09:27:47;0.60;;;0.60;;
80398;SDS011;69722;48.642;9.142;2023-05-10T09:30:16;0.75;;;0.65;;
80398;SDS011;69722;48.642;9.142;2023-05-10T09:32:44;2.03;;;1.10;;
80398;SDS011;69722;48.642;9.142;2023-05-10T09:35:10;1.63;;;0.85;;
80398;SDS011;69722;48.642;9.142;2023-05-10T09:37:40;1.60;;;0.95;;
80398;SDS011;69722;48.642;9.142;2023-05-10T09:40:07;1.48;;;0.90;;
80398;SDS011;69722;48.642;9.142;2023-05-10T09:42:33;2.08;;;0.60;;
80398;SDS011;69722;48.642;9.142;2023-05-10T09:45:00;1.48;;;0.77;;
80398;SDS011;69722;48.642;9.142;2023-05-10T09:47:27;1.02;;;0.80;;
80398;SDS011;69722;48.642;9.142;2023-05-10T09:49:52;0.55;;;0.50;;
80398;SDS011;69722;48.642;9.142;2023-05-10T09:52:20;1.40;;;0.80;;
80398;SDS011;69722;48.642;9.142;2023-05-10T09:54:52;0.47;;;0.30;;
80398;SDS011;69722;48.642;9.142;2023-05-10T09:57:21;0.80;;;0.55;;
80398;SDS011;69722;48.642;9.142;2023-05-10T09:59:47;0.98;;;0.88;;
80398;SDS011;69722;48.642;9.142;2023-05-10T10:02:12;0.63;;;0.55;;
80398;SDS011;69722;48.642;9.142;2023-05-10T10:04:39;0.70;;;0.70;;
80398;SDS011;69722;48.642;9.142;2023-05-10T10:07:05;0.70;;;0.70;;
80398;SDS011;69722;48.642;9.142;2023-05-10T10:09:31;0.40;;;0.40;;
80398;SDS011;69722;48.642;9.142;2023-05-10T10:11:57;0.88;;;0.80;;
80398;SDS011;69722;48.642;9.142;2023-05-10T10:14:22;1.10;;;0.63;;
80398;SDS011;69722;48.642;9.142;2023-05-10T10:16:49;0.82;;;0.70;;
80398;SDS011;69722;48.642;9.142;2023-05-10T10:19:15;0.88;;;0.75;;
80398;SDS011;69722;48.642;9.142;2023-05-10T10:21:40;0.67;;;0.40;;
80398;SDS011;69722;48.642;9.142;2023-05-10T10:24:06;0.67;;;0.50;;
80398;SDS011;69722;48.642;9.142;2023-05-10T10:26:34;0.55;;;0.50;;
80398;SDS011;69722;48.642;9.142;2023-05-10T10:29:14;1.23;;;0.80;;
80398;SDS011;69722;48.642;9.142;2023-05-10T10:31:47;0.68;;;0.50;;
80398;SDS011;69722;48.642;9.142;2023-05-10T10:34:26;1.30;;;0.75;;
80398;SDS011;69722;48.642;9.142;2023-05-10T10:36:56;0.88;;;0.68;;
80398;SDS011;69722;48.642;9.142;2023-05-10T10:39:22;1.08;;;0.80;;
80398;SDS011;69722;48.642;9.142;2023-05-10T10:41:51;0.50;;;0.50;;
80398;SDS011;69722;48.642;9.142;2023-05-10T10:44:33;0.70;;;0.70;;
80398;SDS011;69722;48.642;9.142;2023-05-10T10:47:21;0.85;;;0.60;;
80398;SDS011;69722;48.642;9.142;2023-05-10T10:50:02;1.52;;;0.43;;
80398;SDS011;69722;48.642;9.142;2023-05-10T10:52:32;1.38;;;0.82;;
80398;SDS011;69722;48.642;9.142;2023-05-10T10:55:07;1.30;;;0.88;;
80398;SDS011;69722;48.642;9.142;2023-05-10T10:57:42;0.73;;;0.73;;
80398;SDS011;69722;48.642;9.142;2023-05-10T11:00:31;0.52;;;0.50;;
80398;SDS011;69722;48.642;9.142;2023-05-10T11:03:08;0.52;;;0.50;;
80398;SDS011;69722;48.642;9.142;2023-05-10T11:05:45;1.20;;;0.80;;
80398;SDS011;69722;48.642;9.142;2023-05-10T11:11:13;0.40;;;0.40;;
80398;SDS011;69722;48.642;9.142;2023-05-10T11:13:38;0.63;;;0.40;;
80398;SDS011;69722;48.642;9.142;2023-05-10T11:16:12;0.70;;;0.70;;
80398;SDS011;69722;48.642;9.142;2023-05-10T11:18:51;0.88;;;0.50;;
80398;SDS011;69722;48.642;9.142;2023-05-10T11:21:30;0.50;;;0.30;;
80398;SDS011;69722;48.642;9.142;2023-05-10T11:23:58;0.82;;;0.63;;
80398;SDS011;69722;48.642;9.142;2023-05-10T11:26:25;0.98;;;0.75;;
80398;SDS011;69722;48.642;9.142;2023-05-10T11:28:52;0.40;;;0.40;;
80398;SDS011;69722;48.642;9.142;2023-05-10T11:31:20;0.63;;;0.50;;
80398;SDS011;69722;48.642;9.142;2023-05-10T11:33:46;0.65;;;0.55;;
80398;SDS011;69722;48.642;9.142;2023-05-10T11:36:13;0.63;;;0.63;;
80398;SDS011;69722;48.642;9.142;2023-05-10T11:41:04;1.13;;;0.57;;
80398;SDS011;69722;48.642;9.142;2023-05-10T11:43:30;1.70;;;0.60;;
80398;SDS011;69722;48.642;9.142;2023-05-10T11:45:55;2.00;;;0.47;;
80398;SDS011;69722;48.642;9.142;2023-05-10T11:48:21;0.47;;;0.47;;
80398;SDS011;69722;48.642;9.142;2023-05-10T11:50:48;1.55;;;0.80;;
80398;SDS011;69722;48.642;9.142;2023-05-10T11:53:14;0.90;;;0.55;;
80398;SDS011;69722;48.642;9.142;2023-05-10T11:55:39;0.60;;;0.60;;
80398;SDS011;69722;48.642;9.142;2023-05-10T11:58:05;0.83;;;0.60;;
80398;SDS011;69722;48.642;9.142;2023-05-10T12:00:30;2.33;;;0.67;;
80398;SDS011;69722;48.642;9.142;2023-05-10T12:02:56;1.35;;;0.55;;
80398;SDS011;69722;48.642;9.142;2023-05-10T12:05:21;0.50;;;0.50;;
80398;SDS011;69722;48.642;9.142;2023-05-10T12:07:46;0.43;;;0.43;;
80398;SDS011;69722;48.642;9.142;2023-05-10T12:10:12;1.13;;;0.50;;
80398;SDS011;69722;48.642;9.142;2023-05-10T12:12:46;0.93;;;0.70;;
80398;SDS011;69722;48.642;9.142;2023-05-10T12:15:18;0.43;;;0.43;;
80398;SDS011;69722;48.642;9.142;2023-05-10T12:17:45;0.63;;;0.63;;
80398;SDS011;69722;48.642;9.142;2023-05-10T12:20:14;0.63;;;0.60;;
80398;SDS011;69722;48.642;9.142;2023-05-10T12:22:47;0.77;;;0.77;;
80398;SDS011;69722;48.642;9.142;2023-05-10T12:25:16;1.52;;;0.70;;
80398;SDS011;69722;48.642;9.142;2023-05-10T12:27:52;0.43;;;0.43;;
80398;SDS011;69722;48.642;9.142;2023-05-10T12:30:23;0.75;;;0.52;;
80398;SDS011;69722;48.642;9.142;2023-05-10T12:32:52;0.85;;;0.65;;
80398;SDS011;69722;48.642;9.142;2023-05-10T12:35:18;0.60;;;0.60;;
80398;SDS011;69722;48.642;9.142;2023-05-10T12:37:48;1.90;;;1.38;;
80398;SDS011;69722;48.642;9.142;2023-05-10T12:40:15;0.90;;;0.65;;
80398;SDS011;69722;48.642;9.142;2023-05-10T12:42:40;0.57;;;0.35;;
80398;SDS011;69722;48.642;9.142;2023-05-10T12:45:06;0.50;;;0.50;;
80398;SDS011;69722;48.642;9.142;2023-05-10T12:47:33;0.50;;;0.47;;
80398;SDS011;69722;48.642;9.142;2023-05-10T12:49:59;0.75;;;0.40;;
80398;SDS011;69722;48.642;9.142;2023-05-10T12:52:25;0.45;;;0.45;;
80398;SDS011;69722;48.642;9.142;2023-05-10T12:54:50;0.90;;;0.40;;
80398;SDS011;69722;48.642;9.142;2023-05-10T12:57:16;1.17;;;0.90;;
80398;SDS011;69722;48.642;9.142;2023-05-10T12:59:41;0.87;;;0.70;;
80398;SDS011;69722;48.642;9.142;2023-05-10T13:02:08;0.20;;;0.10;;
80398;SDS011;69722;48.642;9.142;2023-05-10T13:04:33;0.82;;;0.63;;
80398;SDS011;69722;48.642;9.142;2023-05-10T13:06:59;0.90;;;0.60;;
80398;SDS011;69722;48.642;9.142;2023-05-10T13:09:24;1.00;;;0.67;;
80398;SDS011;69722;48.642;9.142;2023-05-10T13:11:51;0.77;;;0.77;;
80398;SDS011;69722;48.642;9.142;2023-05-10T13:16:48;0.95;;;0.82;;
80398;SDS011;69722;48.642;9.142;2023-05-10T13:19:13;1.02;;;0.73;;
80398;SDS011;69722;48.642;9.142;2023-05-10T13:21:41;0.60;;;0.50;;
80398;SDS011;69722;48.642;9.142;2023-05-10T13:24:06;0.50;;;0.50;;
80398;SDS011;69722;48.642;9.142;2023-05-10T13:26:32;0.50;;;0.50;;
80398;SDS011;69722;48.642;9.142;2023-05-10T13:28:57;0.77;;;0.65;;
80398;SDS011;69722;48.642;9.142;2023-05-10T13:31:23;0.73;;;0.47;;
80398;SDS011;69722;48.642;9.142;2023-05-10T13:33:48;0.60;;;0.55;;
80398;SDS011;69722;48.642;9.142;2023-05-10T13:36:13;0.50;;;0.50;;
80398;SDS011;69722;48.642;9.142;2023-05-10T13:38:39;0.47;;;0.47;;
80398;SDS011;69722;48.642;9.142;2023-05-10T13:41:04;0.30;;;0.30;;
80398;SDS011;69722;48.642;9.142;2023-05-10T13:43:30;0.98;;;0.70;;
80398;SDS011;69722;48.642;9.142;2023-05-10T13:45:55;0.50;;;0.40;;
80398;SDS011;69722;48.642;9.142;2023-05-10T13:48:20;0.73;;;0.60;;
80398;SDS011;69722;48.642;9.142;2023-05-10T13:50:46;0.47;;;0.47;;
80398;SDS011;69722;48.642;9.142;2023-05-10T13:53:11;0.82;;;0.73;;
80398;SDS011;69722;48.642;9.142;2023-05-10T13:55:37;0.68;;;0.60;;
80398;SDS011;69722;48.642;9.142;2023-05-10T13:58:02;0.50;;;0.50;;
80398;SDS011;69722;48.642;9.142;2023-05-10T14:00:28;1.50;;;0.63;;
80398;SDS011;69722;48.642;9.142;2023-05-10T14:02:53;0.67;;;0.60;;
80398;SDS011;69722;48.642;9.142;2023-05-10T14:05:18;0.50;;;0.50;;
80398;SDS011;69722;48.642;9.142;2023-05-10T14:07:44;0.52;;;0.43;;
80398;SDS011;69722;48.642;9.142;2023-05-10T14:10:09;0.50;;;0.50;;
80398;SDS011;69722;48.642;9.142;2023-05-10T14:12:35;0.82;;;0.50;;
80398;SDS011;69722;48.642;9.142;2023-05-10T14:15:00;1.03;;;0.50;;
80398;SDS011;69722;48.642;9.142;2023-05-10T14:17:26;0.50;;;0.40;;
80398;SDS011;69722;48.642;9.142;2023-05-10T14:19:51;0.50;;;0.50;;
80398;SDS011;69722;48.642;9.142;2023-05-10T14:22:17;0.82;;;0.50;;
80398;SDS011;69722;48.642;9.142;2023-05-10T14:24:43;0.68;;;0.60;;
80398;SDS011;69722;48.642;9.142;2023-05-10T14:27:11;0.43;;;0.43;;
80398;SDS011;69722;48.642;9.142;2023-05-10T14:29:37;0.57;;;0.55;;
80398;SDS011;69722;48.642;9.142;2023-05-10T14:32:02;1.13;;;0.80;;
80398;SDS011;69722;48.642;9.142;2023-05-10T14:34:28;0.47;;;0.47;;
80398;SDS011;69722;48.642;9.142;2023-05-10T14:36:53;0.55;;;0.55;;
80398;SDS011;69722;48.642;9.142;2023-05-10T14:39:18;1.40;;;0.77;;
80398;SDS011;69722;48.642;9.142;2023-05-10T14:41:44;0.67;;;0.67;;
80398;SDS011;69722;48.642;9.142;2023-05-10T14:44:10;0.88;;;0.65;;
80398;SDS011;69722;48.642;9.142;2023-05-10T14:46:36;1.20;;;0.57;;
80398;SDS011;69722;48.642;9.142;2023-05-10T14:49:02;0.55;;;0.55;;
80398;SDS011;69722;48.642;9.142;2023-05-10T14:51:28;0.77;;;0.60;;
80398;SDS011;69722;48.642;9.142;2023-05-10T14:53:53;0.47;;;0.37;;
80398;SDS011;69722;48.642;9.142;2023-05-10T14:56:18;0.50;;;0.50;;
80398;SDS011;69722;48.642;9.142;2023-05-10T14:58:45;1.00;;;0.80;;
80398;SDS011;69722;48.642;9.142;2023-05-10T15:01:10;0.53;;;0.50;;
80398;SDS011;69722;48.642;9.142;2023-05-10T15:03:36;1.77;;;0.70;;
80398;SDS011;69722;48.642;9.142;2023-05-10T15:06:01;1.07;;;0.73;;
80398;SDS011;69722;48.642;9.142;2023-05-10T15:08:27;1.42;;;0.60;;
80398;SDS011;69722;48.642;9.142;2023-05-10T15:10:52;1.05;;;0.77;;
80398;SDS011;69722;48.642;9.142;2023-05-10T15:13:20;0.40;;;0.30;;